createdAt,value
2022-11-13T00:02:35.521Z,99.78
2022-11-13T00:06:37.080Z,100.00
2022-11-13T00:10:38.747Z,99.91
2022-11-13T00:14:40.071Z,99.73
2022-11-13T00:18:41.800Z,100.00
2022-11-13T00:22:43.112Z,99.99
2022-11-13T00:26:44.427Z,99.90
2022-11-13T00:30:45.754Z,99.88
2022-11-13T00:34:48.276Z,100.00
2022-11-13T00:38:49.823Z,99.98
2022-11-13T00:42:51.195Z,100.00
2022-11-13T00:46:52.528Z,100.00
2022-11-13T00:50:53.835Z,100.00
2022-11-13T00:54:55.184Z,99.99
2022-11-13T00:58:56.539Z,100.00
2022-11-13T01:02:58.432Z,100.00
2022-11-13T01:06:59.782Z,100.00
2022-11-13T01:11:07.110Z,99.96
2022-11-13T01:15:08.824Z,99.93
2022-11-13T01:19:10.113Z,99.70
2022-11-13T01:23:11.519Z,99.73
2022-11-13T01:27:13.259Z,99.73
2022-11-13T01:31:17.117Z,99.59
2022-11-13T01:35:18.420Z,99.67
2022-11-13T01:39:19.731Z,99.58
2022-11-13T01:43:25.880Z,99.77
2022-11-13T01:47:27.811Z,99.80
2022-11-13T01:51:34.066Z,99.75
2022-11-13T01:55:36.384Z,99.72
2022-11-13T01:59:40.277Z,99.63
2022-11-13T02:03:41.761Z,99.43
2022-11-13T02:07:43.049Z,99.13
2022-11-13T02:11:44.566Z,98.96
2022-11-13T02:15:46.187Z,99.33
2022-11-13T02:19:50.429Z,99.32
2022-11-13T02:24:04.212Z,99.42
2022-11-13T02:28:05.651Z,99.67
2022-11-13T02:32:06.980Z,99.47
2022-11-13T02:36:09.812Z,99.08
2022-11-13T02:40:11.831Z,98.75
2022-11-13T02:44:13.322Z,98.98
2022-11-13T02:48:14.563Z,98.84
2022-11-13T02:52:15.885Z,98.96
2022-11-13T02:56:17.513Z,98.66
2022-11-13T03:00:18.968Z,98.71
2022-11-13T03:04:20.243Z,98.69
2022-11-13T03:08:22.476Z,98.54
2022-11-13T03:12:23.744Z,98.58
2022-11-13T03:16:25.184Z,98.58
2022-11-13T03:20:26.456Z,98.61
2022-11-13T03:24:27.800Z,98.25
2022-11-13T03:28:29.701Z,98.17
2022-11-13T03:32:31.491Z,97.88
2022-11-13T03:36:32.972Z,97.22
2022-11-13T03:40:34.543Z,96.88
2022-11-13T03:44:35.823Z,96.53
2022-11-13T03:48:37.212Z,96.30
2022-11-13T03:52:38.543Z,96.56
2022-11-13T03:56:40.170Z,96.97
2022-11-13T04:00:41.694Z,97.02
2022-11-13T04:04:43.054Z,97.24
2022-11-13T04:08:44.352Z,97.16
2022-11-13T04:12:45.908Z,97.45
2022-11-13T04:16:47.241Z,97.48
2022-11-13T04:20:48.538Z,97.27
2022-11-13T04:24:50.136Z,97.42
2022-11-13T04:28:51.505Z,97.31
2022-11-13T04:32:52.839Z,97.24
2022-11-13T04:36:54.564Z,97.61
2022-11-13T04:41:15.773Z,97.07
2022-11-13T04:45:18.671Z,96.86
2022-11-13T04:49:20.067Z,96.36
2022-11-13T04:53:21.423Z,95.90
2022-11-13T04:57:22.949Z,96.20
2022-11-13T05:01:24.399Z,95.57
2022-11-13T05:05:25.696Z,95.50
2022-11-13T05:09:27.046Z,95.71
2022-11-13T05:13:32.335Z,95.71
2022-11-13T05:17:34.021Z,95.58
2022-11-13T05:21:36.088Z,95.22
2022-11-13T05:25:37.483Z,95.78
2022-11-13T05:29:38.699Z,95.56
2022-11-13T05:33:40.913Z,95.79
2022-11-13T05:37:42.268Z,95.81
2022-11-13T05:41:43.685Z,95.80
2022-11-13T05:45:45.105Z,95.96
2022-11-13T05:49:46.415Z,95.99
2022-11-13T05:53:47.831Z,95.82
2022-11-13T05:57:49.659Z,95.30
2022-11-13T06:01:51.032Z,95.36
2022-11-13T06:05:52.348Z,95.66
2022-11-13T06:09:53.628Z,95.77
2022-11-13T06:13:55.816Z,95.68
2022-11-13T06:17:57.039Z,96.17
2022-11-13T06:21:58.759Z,96.27
2022-11-13T06:26:04.705Z,96.05
2022-11-13T06:30:06.314Z,96.22
2022-11-13T06:34:07.623Z,95.88
2022-11-13T06:38:09.093Z,96.50
2022-11-13T06:42:10.358Z,96.45
2022-11-13T06:46:13.169Z,96.79
2022-11-13T06:50:14.873Z,96.75
2022-11-13T06:54:16.408Z,97.34
2022-11-13T06:58:17.679Z,96.76
2022-11-13T07:02:19.463Z,97.29
2022-11-13T07:06:22.308Z,96.87
2022-11-13T07:10:23.635Z,97.08
2022-11-13T07:14:24.892Z,97.13
2022-11-13T07:18:26.694Z,96.97
2022-11-13T07:22:29.384Z,96.63
2022-11-13T07:26:31.201Z,96.56
2022-11-13T07:30:32.510Z,96.88
2022-11-13T07:34:33.809Z,96.25
2022-11-13T07:38:35.108Z,96.19
2022-11-13T07:42:37.066Z,96.27
2022-11-13T07:46:38.367Z,96.17
2022-11-13T07:50:39.735Z,96.35
2022-11-13T07:54:41.040Z,96.24
2022-11-13T07:58:42.368Z,96.31
2022-11-13T08:02:43.722Z,96.50
2022-11-13T08:06:45.401Z,96.38
2022-11-13T08:10:46.722Z,95.42
2022-11-13T08:14:48.013Z,94.59
2022-11-13T08:18:49.950Z,94.33
2022-11-13T08:22:51.431Z,93.59
2022-11-13T08:26:52.691Z,92.95
2022-11-13T08:30:54.253Z,91.71
2022-11-13T08:34:55.532Z,90.29
2022-11-13T08:38:56.812Z,88.02
2022-11-13T08:42:58.994Z,86.52
2022-11-13T08:47:00.320Z,84.70
2022-11-13T08:51:01.554Z,83.27
2022-11-13T08:55:02.958Z,81.96
2022-11-13T08:59:04.248Z,80.34
2022-11-13T09:03:06.055Z,79.83
2022-11-13T09:07:07.395Z,78.24
2022-11-13T09:11:08.881Z,77.18
2022-11-13T09:15:10.935Z,76.84
2022-11-13T09:19:12.698Z,76.04
2022-11-13T09:23:13.932Z,74.99
2022-11-13T09:27:15.244Z,74.25
2022-11-13T09:31:16.503Z,73.40
2022-11-13T09:35:35.078Z,72.83
2022-11-13T09:39:36.582Z,72.30
2022-11-13T09:43:37.967Z,72.46
2022-11-13T09:47:44.051Z,72.12
2022-11-13T09:51:51.261Z,71.62
2022-11-13T09:56:18.931Z,71.83
2022-11-13T10:00:20.981Z,71.94
2022-11-13T10:04:29.487Z,72.09
2022-11-13T10:08:51.035Z,73.04
2022-11-13T10:12:54.419Z,73.41
2022-11-13T10:16:59.379Z,73.84
2022-11-13T10:21:20.900Z,73.20
2022-11-13T10:25:25.677Z,73.99
2022-11-13T10:29:28.747Z,73.79
2022-11-13T10:33:30.577Z,73.04
2022-11-13T10:38:06.576Z,72.90
2022-11-13T10:42:20.879Z,72.73
2022-11-13T10:46:24.393Z,72.37
2022-11-13T10:50:27.319Z,72.17
2022-11-13T10:54:30.395Z,72.41
2022-11-13T10:58:32.355Z,72.65
2022-11-13T11:02:35.476Z,71.57
2022-11-13T11:11:25.627Z,70.00
2022-11-13T11:15:29.163Z,69.15
2022-11-13T11:19:35.026Z,68.60
2022-11-13T11:23:56.379Z,66.81
2022-11-13T11:28:05.079Z,66.45
2022-11-13T11:32:18.496Z,66.18
2022-11-13T11:36:30.356Z,66.02
2022-11-13T11:40:35.943Z,65.09
2022-11-13T11:44:56.001Z,65.81
2022-11-13T11:49:02.019Z,64.62
2022-11-13T11:53:06.303Z,64.79
2022-11-13T11:57:27.843Z,63.90
2022-11-13T12:01:41.047Z,63.26
2022-11-13T12:06:01.561Z,62.54
2022-11-13T12:10:18.147Z,61.40
2022-11-13T12:14:34.669Z,61.55
2022-11-13T12:18:38.696Z,61.52
2022-11-13T12:22:43.692Z,61.16
2022-11-13T12:26:45.216Z,60.46
2022-11-13T12:30:49.396Z,61.29
2022-11-13T12:34:53.271Z,59.32
2022-11-13T12:39:21.273Z,58.76
2022-11-13T12:43:58.212Z,59.59
2022-11-13T12:48:19.738Z,59.07
2022-11-13T12:52:23.953Z,58.00
2022-11-13T12:56:26.394Z,58.26
2022-11-13T13:00:29.504Z,57.44
2022-11-13T13:04:42.644Z,57.57
2022-11-13T13:08:47.930Z,56.41
2022-11-13T13:12:56.825Z,56.35
2022-11-13T13:17:05.137Z,57.05
2022-11-13T13:21:19.047Z,57.17
2022-11-13T13:25:25.696Z,56.82
2022-11-13T13:29:31.182Z,56.39
2022-11-13T13:33:34.061Z,57.11
2022-11-13T13:37:51.513Z,56.90
2022-11-13T13:41:56.094Z,56.64
2022-11-13T13:46:06.029Z,56.74
2022-11-13T13:50:08.791Z,56.33
2022-11-13T13:54:16.449Z,56.97
2022-11-13T13:58:19.750Z,56.95
2022-11-13T14:02:25.300Z,57.01
2022-11-13T14:06:27.337Z,57.33
2022-11-13T14:10:28.811Z,57.75
2022-11-13T14:14:31.350Z,58.04
2022-11-13T14:18:33.206Z,57.45
2022-11-13T14:22:34.542Z,57.79
2022-11-13T14:26:35.887Z,56.61
2022-11-13T14:30:37.120Z,56.23
2022-11-13T14:34:42.655Z,56.16
2022-11-13T14:38:51.788Z,56.18
2022-11-13T14:42:58.178Z,56.11
2022-11-13T14:47:06.888Z,56.14
2022-11-13T14:51:22.364Z,56.12
2022-11-13T14:55:28.486Z,57.02
2022-11-13T14:59:30.091Z,59.02
2022-11-13T15:03:31.955Z,59.00
2022-11-13T15:07:34.608Z,56.95
2022-11-13T15:11:38.631Z,58.39
2022-11-13T15:15:40.219Z,60.53
2022-11-13T15:19:42.094Z,62.96
2022-11-13T15:23:43.484Z,65.29
2022-11-13T15:27:44.740Z,66.79
2022-11-13T15:31:47.179Z,68.09
2022-11-13T15:35:48.426Z,69.61
2022-11-13T15:39:50.417Z,71.95
2022-11-13T15:43:52.987Z,72.69
2022-11-13T15:47:54.259Z,72.58
2022-11-13T15:51:55.768Z,73.55
2022-11-13T15:56:02.928Z,74.14
2022-11-13T16:00:04.651Z,74.38
2022-11-13T16:04:06.383Z,75.30
2022-11-13T16:08:11.359Z,76.35
2022-11-13T16:12:13.421Z,75.88
2022-11-13T16:16:16.913Z,76.90
2022-11-13T16:20:18.866Z,77.74
2022-11-13T16:24:24.062Z,78.60
2022-11-13T16:28:25.811Z,77.07
2022-11-13T16:32:27.206Z,76.03
2022-11-13T16:36:29.076Z,77.61
2022-11-13T16:40:30.909Z,78.08
2022-11-13T16:44:32.334Z,78.11
2022-11-13T16:48:34.309Z,79.22
2022-11-13T16:52:35.691Z,79.00
2022-11-13T16:56:36.940Z,79.59
2022-11-13T17:00:38.355Z,80.43
2022-11-13T17:04:39.681Z,81.04
2022-11-13T17:08:41.677Z,82.83
2022-11-13T17:12:43.023Z,83.84
2022-11-13T17:16:45.693Z,83.83
2022-11-13T17:20:49.694Z,84.66
2022-11-13T17:24:51.015Z,84.89
2022-11-13T17:28:52.717Z,84.91
2022-11-13T17:32:54.140Z,84.96
2022-11-13T17:36:55.544Z,85.45
2022-11-13T17:41:02.983Z,85.34
2022-11-13T17:45:04.437Z,85.66
2022-11-13T17:49:05.720Z,86.15
2022-11-13T17:53:07.124Z,86.36
2022-11-13T17:57:10.233Z,86.56
2022-11-13T18:01:13.506Z,86.97
2022-11-13T18:05:15.072Z,87.26
2022-11-13T18:09:16.358Z,88.02
2022-11-13T18:13:17.801Z,88.18
2022-11-13T18:17:19.512Z,88.03
2022-11-13T18:21:23.858Z,88.35
2022-11-13T18:25:25.177Z,88.37
2022-11-13T18:29:26.548Z,88.84
2022-11-13T18:33:28.072Z,88.94
2022-11-13T18:37:30.412Z,89.51
2022-11-13T18:41:32.747Z,90.09
2022-11-13T18:45:34.139Z,90.17
2022-11-13T18:49:35.440Z,90.72
2022-11-13T18:53:36.847Z,90.67
2022-11-13T18:57:38.099Z,90.73
2022-11-13T19:01:39.999Z,91.01
2022-11-13T19:05:45.436Z,90.99
2022-11-13T19:09:50.305Z,91.30
2022-11-13T19:13:52.021Z,91.25
2022-11-13T19:17:53.832Z,91.26
2022-11-13T19:21:55.124Z,91.99
2022-11-13T19:25:56.720Z,92.63
2022-11-13T19:29:58.044Z,92.83
2022-11-13T19:34:00.566Z,92.47
2022-11-13T19:38:02.364Z,92.44
2022-11-13T19:42:04.160Z,93.12
2022-11-13T19:46:09.470Z,93.53
2022-11-13T19:50:10.828Z,93.68
2022-11-13T19:54:12.091Z,93.42
2022-11-13T19:58:13.365Z,94.09
2022-11-13T20:02:14.616Z,93.93
2022-11-13T20:06:16.796Z,93.84
2022-11-13T20:10:18.103Z,93.50
2022-11-13T20:14:19.379Z,93.17
2022-11-13T20:18:20.703Z,93.96
2022-11-13T20:22:22.428Z,93.34
2022-11-13T20:26:23.787Z,93.56
2022-11-13T20:30:25.224Z,94.07
2022-11-13T20:34:26.755Z,94.79
2022-11-13T20:38:28.887Z,96.04
2022-11-13T20:42:30.380Z,97.46
2022-11-13T20:46:31.695Z,98.63
2022-11-13T20:50:34.935Z,99.25
2022-11-13T20:54:36.443Z,99.72
2022-11-13T20:58:38.199Z,100.00
2022-11-13T21:02:42.827Z,100.00
2022-11-13T21:06:44.437Z,99.56
2022-11-13T21:10:45.708Z,99.96
2022-11-13T21:14:46.973Z,99.95
2022-11-13T21:18:48.276Z,100.00
2022-11-13T21:22:49.506Z,99.96
2022-11-13T21:26:50.862Z,99.81
2022-11-13T21:30:52.168Z,99.62
2022-11-13T21:34:58.862Z,99.72
2022-11-13T21:39:00.150Z,99.11
2022-11-13T21:43:01.443Z,99.30
2022-11-13T21:47:02.744Z,98.88
2022-11-13T21:51:04.163Z,98.75
2022-11-13T21:55:05.692Z,98.66
2022-11-13T21:59:07.042Z,98.72
2022-11-13T22:03:08.373Z,99.30
2022-11-13T22:07:09.717Z,99.34
2022-11-13T22:12:11.094Z,99.29
2022-11-13T22:16:12.572Z,99.19
2022-11-13T22:20:14.140Z,98.72
2022-11-13T22:24:15.711Z,98.53
2022-11-13T22:28:17.018Z,98.45
2022-11-13T22:32:18.340Z,98.33
2022-11-13T22:36:20.915Z,98.13
2022-11-13T22:40:22.151Z,97.81
2022-11-13T22:44:28.556Z,97.64
2022-11-13T22:48:37.690Z,97.63
2022-11-13T22:52:39.121Z,97.43
2022-11-13T22:56:41.120Z,97.26
2022-11-13T23:00:42.445Z,97.41
2022-11-13T23:04:43.730Z,97.33
2022-11-13T23:08:45.014Z,97.44
2022-11-13T23:12:46.351Z,97.50
2022-11-13T23:16:47.624Z,97.57
2022-11-13T23:20:49.041Z,97.54
2022-11-13T23:24:50.355Z,97.34
2022-11-13T23:28:52.008Z,96.94
2022-11-13T23:32:53.273Z,97.13
2022-11-13T23:36:54.529Z,97.23
2022-11-13T23:40:56.940Z,97.11
2022-11-13T23:44:58.180Z,97.03
2022-11-13T23:48:59.804Z,97.01
2022-11-13T23:53:01.132Z,96.59
2022-11-13T23:57:02.523Z,96.84
